Time;durP1;ratioP1;P1;durP2;ratioP2;P2;SDS_P1;SDS_P2;PMS_P1;PMS_P2;Temp;Humidity;BMP_temperature;BMP_pressure;BME280_temperature;BME280_humidity;BME280_pressure;Samples;Min_cycle;Max_cycle;Signal;HPM_P1;HPM_P2
2022/07/23 00:00:49;;;;;;;;;;;;;;;29.33;66.45;97852.66;5142692;27;19957;-60
2022/07/23 00:03:16;;;;;;;;;;;;;;;28.42;68.96;97845.41;5145764;27;19992;-61
2022/07/23 00:05:43;;;;;;;;;;;;;;;28.47;72.13;97836.84;5146461;27;19993;-60
2022/07/23 00:08:09;;;;;;;;;;;;;;;28.79;71.67;97837.84;5143669;27;19962;-60
2022/07/23 00:10:36;;;;;;;;;;;;;;;28.99;69.39;97843.03;5142628;27;19924;-61
2022/07/23 00:13:02;;;;;;;;;;;;;;;29.08;68.74;97846.22;5141246;27;19959;-61
2022/07/23 00:15:29;;;;;;;;;;;;;;;28.68;70.98;97838.94;5145915;27;19958;-60
2022/07/23 00:17:55;;;;;;;;;;;;;;;27.95;76.29;97832.44;5145291;27;19923;-60
2022/07/23 00:20:23;;;;;;;;;;;;;;;28.21;76.15;97834.25;5142566;27;19923;-60
2022/07/23 00:22:50;;;;;;;;;;;;;;;28.66;73.22;97820.09;5142577;27;19927;-60
2022/07/23 00:25:16;;;;;;;;;;;;;;;28.92;71.50;97811.59;5145677;27;20363;-60
2022/07/23 00:27:43;;;;;;;;;;;;;;;29.06;70.01;97821.84;5145829;27;19924;-60
2022/07/23 00:30:10;;;;;;;;;;;;;;;28.87;71.57;97811.19;5143167;27;19954;-61
2022/07/23 00:32:45;;;;;;;;;;;;;;;28.62;74.23;97813.75;5142164;27;19924;-60
2022/07/23 00:35:11;;;;;;;;;;;;;;;28.78;72.93;97805.25;5144765;27;19962;-61
2022/07/23 00:37:39;;;;;;;;;;;;;;;28.88;72.61;97805.28;5145529;27;19919;-60
2022/07/23 00:40:06;;;;;;;;;;;;;;;28.86;73.65;97790.34;5143487;27;19923;-60
2022/07/23 00:42:33;;;;;;;;;;;;;;;28.82;74.91;97795.84;5139531;27;19969;-60
2022/07/23 00:44:59;;;;;;;;;;;;;;;28.81;74.37;97791.50;5142599;27;19931;-60
2022/07/23 00:47:25;;;;;;;;;;;;;;;28.55;75.35;97789.00;5144490;27;19949;-60
2022/07/23 00:49:52;;;;;;;;;;;;;;;28.53;75.78;97776.81;5145346;27;20403;-60
2022/07/23 00:52:18;;;;;;;;;;;;;;;28.80;74.24;97776.19;5133507;27;19923;-60
2022/07/23 00:54:46;;;;;;;;;;;;;;;28.99;72.85;97768.81;5141664;27;20063;-59
2022/07/23 00:57:13;;;;;;;;;;;;;;;29.03;72.01;97766.88;5144525;27;20124;-60
2022/07/23 00:59:39;;;;;;;;;;;;;;;29.01;72.37;97763.69;5145118;27;19955;-61
2022/07/23 01:02:06;;;;;;;;;;;;;;;28.23;77.51;97768.75;5143079;27;19924;-60
2022/07/23 01:04:32;;;;;;;;;;;;;;;28.02;80.13;97768.56;5141490;27;19931;-60
2022/07/23 01:06:59;;;;;;;;;;;;;;;27.95;80.82;97771.25;5142105;27;19983;-60
2022/07/23 01:09:25;;;;;;;;;;;;;;;28.26;78.92;97768.00;5145032;27;19924;-60
2022/07/23 01:11:55;;;;;;;;;;;;;;;28.41;77.47;97761.41;5142510;27;19923;-60
2022/07/23 01:14:22;;;;;;;;;;;;;;;28.06;80.27;97753.75;5133432;27;20299;-60
2022/07/23 01:16:49;;;;;;;;;;;;;;;28.39;78.18;97756.31;5141451;27;19928;-60
2022/07/23 01:19:16;;;;;;;;;;;;;;;28.61;76.44;97757.22;5144667;27;19923;-61
2022/07/23 01:21:43;;;;;;;;;;;;;;;28.42;78.39;97765.75;5144828;27;19923;-61
2022/07/23 01:24:11;;;;;;;;;;;;;;;27.74;81.87;97767.19;5141934;27;19995;-60
2022/07/23 01:26:38;;;;;;;;;;;;;;;27.86;81.76;97780.63;5141085;27;20027;-61
2022/07/23 01:29:04;;;;;;;;;;;;;;;28.00;80.60;97785.44;5142401;27;19931;-60
2022/07/23 01:31:31;;;;;;;;;;;;;;;27.45;84.26;97794.72;5144511;27;19970;-60
2022/07/23 01:33:57;;;;;;;;;;;;;;;27.25;85.58;97796.81;5143682;27;19983;-60
2022/07/23 01:36:24;;;;;;;;;;;;;;;26.71;89.82;97811.78;5141172;27;20019;-60
2022/07/23 01:38:51;;;;;;;;;;;;;;;26.81;89.59;97813.13;5141010;27;19955;-60
2022/07/23 01:41:18;;;;;;;;;;;;;;;26.65;89.58;97829.69;5144477;27;19965;-60
2022/07/23 01:43:45;;;;;;;;;;;;;;;27.60;84.39;97824.69;5141759;27;19974;-59
2022/07/23 01:46:11;;;;;;;;;;;;;;;28.16;80.10;97823.66;5141296;27;19924;-61
2022/07/23 01:48:38;;;;;;;;;;;;;;;28.36;78.75;97817.50;5140683;27;19931;-60
2022/07/23 01:51:04;;;;;;;;;;;;;;;28.54;77.03;97814.88;5141957;27;19930;-60
2022/07/23 01:53:31;;;;;;;;;;;;;;;28.69;76.02;97805.56;5144136;27;19934;-61
2022/07/23 01:55:58;;;;;;;;;;;;;;;28.65;75.99;97804.78;5143088;27;19992;-60
2022/07/23 01:58:26;;;;;;;;;;;;;;;28.62;75.87;97813.75;5140381;27;19935;-61
2022/07/23 02:00:52;;;;;;;;;;;;;;;28.67;75.47;97835.41;5140340;27;19923;-60
2022/07/23 02:03:19;;;;;;;;;;;;;;;28.73;74.69;97841.31;5143870;27;19930;-61
2022/07/23 02:05:45;;;;;;;;;;;;;;;28.74;73.89;97871.19;5143927;27;19971;-59
2022/07/23 02:08:11;;;;;;;;;;;;;;;28.71;71.90;97902.19;5141052;27;19934;-61
2022/07/23 02:10:38;;;;;;;;;;;;;;;28.66;73.61;97899.78;5140193;27;19930;-60
2022/07/23 02:13:04;;;;;;;;;;;;;;;28.73;73.81;97897.09;5139094;27;20589;-60
2022/07/23 02:15:32;;;;;;;;;;;;;;;28.52;75.08;97898.84;5143711;27;19958;-60
2022/07/23 02:17:59;;;;;;;;;;;;;;;28.49;74.84;97924.34;5142677;27;19920;-60
2022/07/23 02:20:25;;;;;;;;;;;;;;;28.14;77.84;97933.84;5139903;27;19930;-60
2022/07/23 02:22:52;;;;;;;;;;;;;;;28.17;77.79;97948.78;5140008;27;19978;-59
2022/07/23 02:25:18;;;;;;;;;;;;;;;28.14;78.27;97935.78;5131472;27;19923;-59
2022/07/23 02:27:44;;;;;;;;;;;;;;;28.17;78.16;97924.06;5139879;27;19930;-59
2022/07/23 02:30:11;;;;;;;;;;;;;;;27.81;80.00;97920.13;5142394;27;19927;-59
2022/07/23 02:32:40;;;;;;;;;;;;;;;27.80;80.31;97924.84;5143206;27;19955;-59
2022/07/23 02:35:07;;;;;;;;;;;;;;;27.85;80.11;97919.00;5141161;27;19923;-59
2022/07/23 02:37:34;;;;;;;;;;;;;;;27.96;79.06;97929.31;5139536;27;19924;-59
2022/07/23 02:40:00;;;;;;;;;;;;;;;27.82;80.92;97925.25;5140652;27;19924;-60
2022/07/23 02:42:26;;;;;;;;;;;;;;;27.81;80.49;97914.66;5138380;27;19963;-60
2022/07/23 02:44:53;;;;;;;;;;;;;;;27.96;80.40;97932.84;5139111;27;19970;-59
2022/07/23 02:47:19;;;;;;;;;;;;;;;28.02;81.79;97933.28;5142979;27;19990;-59
2022/07/23 02:49:47;;;;;;;;;;;;;;;27.90;83.75;97915.13;5143100;27;19970;-60
2022/07/23 02:52:13;;;;;;;;;;;;;;;27.58;85.97;97925.75;5139835;27;19995;-60
2022/07/23 02:54:39;;;;;;;;;;;;;;;27.70;84.95;97933.72;5139301;27;19924;-59
2022/07/23 02:57:06;;;;;;;;;;;;;;;27.60;84.92;97928.94;5140887;27;20010;-59
2022/07/23 02:59:32;;;;;;;;;;;;;;;27.87;83.17;97919.44;5142957;27;19982;-59
2022/07/23 03:01:58;;;;;;;;;;;;;;;27.59;84.21;97913.63;5141836;27;20122;-60
2022/07/23 03:04:25;;;;;;;;;;;;;;;27.47;86.06;97902.09;5139249;27;19984;-60
2022/07/23 03:06:53;;;;;;;;;;;;;;;27.58;85.50;97892.81;5139652;27;19924;-60
2022/07/23 03:09:19;;;;;;;;;;;;;;;27.57;85.92;97890.47;5131142;28;19947;-59
2022/07/23 03:11:45;;;;;;;;;;;;;;;27.67;86.55;97893.31;5138680;28;19930;-60
2022/07/23 03:14:13;;;;;;;;;;;;;;;27.72;85.71;97886.72;5139152;28;19955;-60
2022/07/23 03:16:39;;;;;;;;;;;;;;;27.31;92.43;97883.06;5139366;28;19920;-60
2022/07/23 03:19:05;;;;;;;;;;;;;;;26.57;98.63;97893.75;5140855;28;19924;-60
2022/07/23 03:21:32;;;;;;;;;;;;;;;26.53;98.72;97871.00;5142780;28;19934;-59
2022/07/23 03:23:59;;;;;;;;;;;;;;;26.86;98.90;97914.19;5141717;28;19927;-61
2022/07/23 03:26:26;;;;;;;;;;;;;;;27.12;97.71;97959.97;5139128;28;19924;-60
2022/07/23 03:28:52;;;;;;;;;;;;;;;26.42;100.00;97957.69;5139076;28;20007;-60
2022/07/23 03:31:19;;;;;;;;;;;;;;;27.12;100.00;97952.53;5130965;28;19924;-60
2022/07/23 03:33:45;;;;;;;;;;;;;;;27.43;97.20;97967.09;5139040;28;19991;-60
2022/07/23 03:36:11;;;;;;;;;;;;;;;27.43;99.77;97948.69;5141845;28;19923;-59
2022/07/23 03:38:38;;;;;;;;;;;;;;;27.41;98.52;97945.50;5142963;28;20275;-60
2022/07/23 03:41:05;;;;;;;;;;;;;;;27.48;97.55;97936.59;5140839;28;19930;-59
2022/07/23 03:43:32;;;;;;;;;;;;;;;27.78;95.75;97923.63;5135942;28;19973;-60
2022/07/23 03:45:58;;;;;;;;;;;;;;;27.95;96.47;97908.50;5141235;28;19923;-60
2022/07/23 03:48:25;;;;;;;;;;;;;;;27.74;97.29;97885.19;5138954;28;19926;-61
2022/07/23 03:50:51;;;;;;;;;;;;;;;27.21;100.00;97883.72;5138921;28;20044;-60
2022/07/23 03:53:17;;;;;;;;;;;;;;;27.55;100.00;97868.09;5142307;28;19934;-60
2022/07/23 03:55:44;;;;;;;;;;;;;;;26.91;100.00;97852.78;5142538;28;19962;-60
2022/07/23 03:58:11;;;;;;;;;;;;;;;26.73;100.00;97847.84;5139921;28;20005;-60
2022/07/23 04:00:38;;;;;;;;;;;;;;;26.37;100.00;97845.72;5138773;28;19935;-60
2022/07/23 04:03:04;;;;;;;;;;;;;;;25.96;100.00;97871.19;5140510;28;20627;-59
2022/07/23 04:05:30;;;;;;;;;;;;;;;26.74;100.00;97865.03;5142514;28;19928;-60
2022/07/23 04:07:57;;;;;;;;;;;;;;;26.98;100.00;97852.88;5141862;28;19990;-60
2022/07/23 04:10:23;;;;;;;;;;;;;;;27.11;100.00;97862.47;5139047;28;19974;-59
2022/07/23 04:12:49;;;;;;;;;;;;;;;27.46;98.44;97859.38;5136610;28;20466;-59
2022/07/23 04:15:17;;;;;;;;;;;;;;;27.50;97.92;97841.81;5142100;28;19931;-60
2022/07/23 04:17:44;;;;;;;;;;;;;;;27.72;96.51;97824.41;5142552;28;19920;-60
2022/07/23 04:20:11;;;;;;;;;;;;;;;26.38;100.00;97811.69;5139937;28;19984;-60
2022/07/23 04:22:37;;;;;;;;;;;;;;;27.00;100.00;97806.69;5139714;27;19924;-59
2022/07/23 04:25:04;;;;;;;;;;;;;;;27.30;100.00;97800.00;5144126;27;19920;-59
2022/07/23 04:27:33;;;;;;;;;;;;;;;27.52;99.00;97817.53;5146289;27;19934;-61
2022/07/23 04:29:59;;;;;;;;;;;;;;;27.73;97.36;97825.19;5144888;27;19919;-60
2022/07/23 04:32:27;;;;;;;;;;;;;;;27.84;97.01;97826.88;5142541;27;19920;-59
2022/07/23 04:34:53;;;;;;;;;;;;;;;27.87;97.03;97836.28;5142332;27;19930;-60
2022/07/23 04:37:20;;;;;;;;;;;;;;;27.94;96.17;97852.84;5145812;27;19951;-60
2022/07/23 04:39:46;;;;;;;;;;;;;;;27.94;96.86;97858.31;5145742;27;19923;-60
2022/07/23 04:42:12;;;;;;;;;;;;;;;27.91;95.62;97852.81;5140149;27;19930;-61
2022/07/23 04:44:39;;;;;;;;;;;;;;;27.87;96.90;97844.53;5141776;27;19924;-60
2022/07/23 04:47:05;;;;;;;;;;;;;;;27.85;96.63;97831.16;5143671;27;19997;-60
2022/07/23 04:49:33;;;;;;;;;;;;;;;27.42;99.89;97834.59;5145647;27;19963;-60
2022/07/23 04:51:59;;;;;;;;;;;;;;;27.35;100.00;97834.56;5144426;27;20007;-60
2022/07/23 04:54:25;;;;;;;;;;;;;;;27.60;99.04;97854.06;5141650;27;19920;-60
2022/07/23 04:56:52;;;;;;;;;;;;;;;27.69;98.76;97849.84;5141637;27;19935;-60
2022/07/23 04:59:18;;;;;;;;;;;;;;;27.83;98.68;97835.47;5133198;27;19927;-61
2022/07/23 05:01:44;;;;;;;;;;;;;;;27.63;100.00;97845.06;5141204;27;19924;-61
2022/07/23 05:04:11;;;;;;;;;;;;;;;27.77;99.36;97846.00;5144043;27;19982;-59
2022/07/23 05:06:38;;;;;;;;;;;;;;;27.87;97.10;97852.75;5144124;27;19930;-60
2022/07/23 05:09:05;;;;;;;;;;;;;;;27.91;95.62;97842.63;5143268;27;19966;-60
2022/07/23 05:11:31;;;;;;;;;;;;;;;27.93;94.36;97847.72;5141410;27;19991;-60
2022/07/23 05:13:57;;;;;;;;;;;;;;;27.93;94.84;97847.72;5141209;27;19951;-60
2022/07/23 05:16:24;;;;;;;;;;;;;;;28.01;94.06;97836.41;5141240;27;19975;-60
2022/07/23 05:18:50;;;;;;;;;;;;;;;27.98;94.48;97839.91;5141211;27;19955;-60
2022/07/23 05:21:17;;;;;;;;;;;;;;;28.02;94.64;97848.19;5144386;27;19992;-60
2022/07/23 05:23:44;;;;;;;;;;;;;;;28.03;94.14;97849.78;5144819;27;20067;-61
2022/07/23 05:26:11;;;;;;;;;;;;;;;28.11;92.71;97854.19;5141993;27;19983;-60
2022/07/23 05:28:37;;;;;;;;;;;;;;;28.08;92.76;97852.19;5141258;27;19924;-59
2022/07/23 05:31:04;;;;;;;;;;;;;;;28.04;92.63;97859.59;5142482;27;19966;-60
2022/07/23 05:33:31;;;;;;;;;;;;;;;28.06;91.78;97863.56;5144138;27;19966;-60
2022/07/23 05:36:00;;;;;;;;;;;;;;;28.08;92.91;97865.91;5144077;27;19924;-60
2022/07/23 05:38:27;;;;;;;;;;;;;;;28.17;93.54;97869.13;5140977;27;19924;-60
2022/07/23 05:40:55;;;;;;;;;;;;;;;27.84;100.00;97873.53;5140796;27;19991;-61
2022/07/23 05:43:21;;;;;;;;;;;;;;;27.25;100.00;97865.38;5141714;27;19987;-64
2022/07/23 05:45:47;;;;;;;;;;;;;;;26.81;100.00;97865.19;5144098;27;19950;-61
2022/07/23 05:48:14;;;;;;;;;;;;;;;26.50;100.00;97866.25;5141221;27;20030;-59
2022/07/23 05:50:40;;;;;;;;;;;;;;;26.24;100.00;97869.00;5140797;27;19923;-60
2022/07/23 05:53:07;;;;;;;;;;;;;;;26.24;100.00;97871.72;5141152;27;19928;-60
2022/07/23 05:55:33;;;;;;;;;;;;;;;26.02;100.00;97875.22;5143979;27;19958;-60
2022/07/23 05:58:01;;;;;;;;;;;;;;;25.85;100.00;97876.47;5143063;27;19924;-60
2022/07/23 06:00:28;;;;;;;;;;;;;;;25.65;100.00;97878.47;5140388;27;19930;-60
2022/07/23 06:02:54;;;;;;;;;;;;;;;26.03;100.00;97890.47;5140222;27;19924;-59
2022/07/23 06:05:20;;;;;;;;;;;;;;;25.75;100.00;97899.75;5143733;27;19945;-60
2022/07/23 06:07:47;;;;;;;;;;;;;;;25.89;100.00;97896.50;5143900;27;19931;-59
2022/07/23 06:10:13;;;;;;;;;;;;;;;25.64;100.00;97900.69;5140885;27;19939;-59
2022/07/23 06:12:40;;;;;;;;;;;;;;;25.90;100.00;97902.75;5137803;27;19919;-61
2022/07/23 06:15:09;;;;;;;;;;;;;;;25.62;100.00;97903.00;5142177;27;19930;-60
2022/07/23 06:17:35;;;;;;;;;;;;;;;25.22;100.00;97911.56;5144121;27;19931;-59
2022/07/23 06:20:02;;;;;;;;;;;;;;;25.09;100.00;97912.81;5142661;27;19954;-61
2022/07/23 06:22:28;;;;;;;;;;;;;;;25.21;100.00;97909.97;5140364;27;19924;-59
2022/07/23 06:24:54;;;;;;;;;;;;;;;25.56;100.00;97915.41;5140311;27;19924;-60
2022/07/23 06:27:21;;;;;;;;;;;;;;;25.93;100.00;97924.72;5143615;27;19923;-60
2022/07/23 06:29:47;;;;;;;;;;;;;;;25.25;100.00;97925.25;5143701;27;19966;-61
2022/07/23 06:32:15;;;;;;;;;;;;;;;25.32;100.00;97930.09;5140686;27;20454;-59
2022/07/23 06:34:41;;;;;;;;;;;;;;;25.41;100.00;97946.31;5140175;27;19931;-60
2022/07/23 06:37:08;;;;;;;;;;;;;;;25.19;100.00;97942.34;5141851;27;20383;-60
2022/07/23 06:39:34;;;;;;;;;;;;;;;24.88;100.00;97947.88;5143483;27;19930;-60
2022/07/23 06:42:00;;;;;;;;;;;;;;;24.84;100.00;97960.66;5139670;27;19945;-60
2022/07/23 06:44:27;;;;;;;;;;;;;;;24.98;100.00;97955.50;5139473;27;19960;-59
2022/07/23 06:46:53;;;;;;;;;;;;;;;24.87;100.00;97952.53;5138836;27;19930;-60
2022/07/23 06:49:21;;;;;;;;;;;;;;;24.90;100.00;97959.22;5143249;27;19923;-59
2022/07/23 06:51:47;;;;;;;;;;;;;;;25.18;100.00;97962.59;5143283;27;19934;-60
2022/07/23 06:54:14;;;;;;;;;;;;;;;25.50;100.00;97966.81;5140297;27;19956;-60
2022/07/23 06:56:40;;;;;;;;;;;;;;;25.94;100.00;97963.78;5139706;27;19963;-60
2022/07/23 06:59:07;;;;;;;;;;;;;;;26.35;100.00;97967.72;5141313;27;19923;-61
2022/07/23 07:01:33;;;;;;;;;;;;;;;26.88;100.00;97963.16;5143190;27;19928;-60
2022/07/23 07:03:59;;;;;;;;;;;;;;;27.23;100.00;97958.97;5141960;27;19924;-60
2022/07/23 07:06:27;;;;;;;;;;;;;;;27.52;100.00;97960.16;5139385;27;19927;-60
2022/07/23 07:08:54;;;;;;;;;;;;;;;27.78;98.48;97954.63;5139437;27;19974;-61
2022/07/23 07:11:21;;;;;;;;;;;;;;;27.91;97.55;97965.34;5143199;28;20367;-60
2022/07/23 07:13:47;;;;;;;;;;;;;;;27.91;97.28;97965.34;5140399;28;19924;-60
2022/07/23 07:16:13;;;;;;;;;;;;;;;28.08;95.92;97962.00;5139796;28;19939;-60
2022/07/23 07:18:40;;;;;;;;;;;;;;;28.08;95.61;97971.03;5139451;28;19955;-60
2022/07/23 07:21:06;;;;;;;;;;;;;;;28.03;94.96;97967.81;5141247;28;20351;-61
2022/07/23 07:23:34;;;;;;;;;;;;;;;28.09;95.17;97960.84;5142888;28;19935;-60
2022/07/23 07:26:00;;;;;;;;;;;;;;;28.02;95.36;97966.22;5141541;28;19919;-60
2022/07/23 07:28:26;;;;;;;;;;;;;;;28.08;95.29;97954.56;5139231;28;19967;-59
2022/07/23 07:30:53;;;;;;;;;;;;;;;28.17;94.25;97959.75;5139310;28;19927;-60
2022/07/23 07:33:20;;;;;;;;;;;;;;;28.13;93.04;97956.19;5130871;28;19920;-61
2022/07/23 07:35:47;;;;;;;;;;;;;;;28.09;92.61;97964.41;5139171;28;19924;-60
2022/07/23 07:38:13;;;;;;;;;;;;;;;28.18;92.04;97973.13;5141563;28;20732;-60
2022/07/23 07:40:41;;;;;;;;;;;;;;;28.29;91.92;97970.47;5142650;28;20619;-59
2022/07/23 07:43:07;;;;;;;;;;;;;;;28.39;92.53;97970.56;5133938;28;19930;-61
2022/07/23 07:45:33;;;;;;;;;;;;;;;27.96;95.56;97975.97;5142266;28;19979;-61
2022/07/23 07:48:00;;;;;;;;;;;;;;;27.95;96.69;97979.88;5141688;28;19919;-60
2022/07/23 07:50:26;;;;;;;;;;;;;;;28.35;94.15;97978.00;5138989;28;19962;-60
2022/07/23 07:52:53;;;;;;;;;;;;;;;28.67;89.89;97986.56;5139083;28;19958;-60
2022/07/23 07:55:19;;;;;;;;;;;;;;;28.84;87.22;97979.63;5130440;28;19974;-60
2022/07/23 07:57:47;;;;;;;;;;;;;;;28.53;86.93;97985.63;5141387;27;19991;-60
2022/07/23 08:00:13;;;;;;;;;;;;;;;28.64;88.37;97979.03;5145506;27;19928;-60
2022/07/23 08:02:40;;;;;;;;;;;;;;;28.83;85.95;97981.59;5146290;27;19926;-60
2022/07/23 08:05:07;;;;;;;;;;;;;;;28.89;85.78;97988.31;5144597;27;19923;-60
2022/07/23 08:07:33;;;;;;;;;;;;;;;29.01;83.67;97989.16;5143223;27;19996;-60
2022/07/23 08:10:00;;;;;;;;;;;;;;;29.00;83.04;97993.09;5143584;27;19924;-60
2022/07/23 08:12:26;;;;;;;;;;;;;;;29.13;83.03;97997.09;5141445;27;19955;-62
2022/07/23 08:14:54;;;;;;;;;;;;;;;29.20;82.90;97994.41;5142609;27;19931;-61
2022/07/23 08:17:20;;;;;;;;;;;;;;;29.24;82.95;97995.25;5134391;27;19942;-61
2022/07/23 08:19:46;;;;;;;;;;;;;;;29.22;81.64;98000.31;5142634;27;19928;-61
2022/07/23 08:22:13;;;;;;;;;;;;;;;29.24;82.97;98003.50;5145008;27;19979;-60
2022/07/23 08:24:39;;;;;;;;;;;;;;;29.21;82.57;98005.03;5145988;27;19966;-60
2022/07/23 08:27:05;;;;;;;;;;;;;;;29.25;81.07;98005.06;5144095;27;19923;-61
2022/07/23 08:29:32;;;;;;;;;;;;;;;29.38;80.79;98009.09;5142499;27;19961;-60
2022/07/23 08:31:59;;;;;;;;;;;;;;;29.08;80.79;97998.28;5142921;27;20406;-61
2022/07/23 08:34:26;;;;;;;;;;;;;;;29.17;80.75;98004.22;5145857;27;19930;-60
2022/07/23 08:36:52;;;;;;;;;;;;;;;29.04;79.19;98015.91;5145695;27;19934;-61
2022/07/23 08:39:18;;;;;;;;;;;;;;;29.07;79.41;98006.88;5142186;27;19924;-60
2022/07/23 08:41:45;;;;;;;;;;;;;;;29.00;78.58;98015.88;5141897;27;19928;-60
2022/07/23 08:44:12;;;;;;;;;;;;;;;28.81;77.65;98003.16;5142129;27;19934;-61
2022/07/23 08:46:40;;;;;;;;;;;;;;;29.04;75.65;98007.66;5142005;27;19923;-61
2022/07/23 08:49:08;;;;;;;;;;;;;;;29.02;75.99;98001.75;5143679;27;19945;-61
2022/07/23 08:51:34;;;;;;;;;;;;;;;29.25;75.68;98003.13;5145475;27;19919;-61
2022/07/23 08:54:01;;;;;;;;;;;;;;;29.32;75.16;97996.88;5144300;27;19931;-60
2022/07/23 08:56:27;;;;;;;;;;;;;;;29.20;74.84;98002.66;5141860;27;19930;-61
2022/07/23 08:58:54;;;;;;;;;;;;;;;29.20;74.34;97992.47;5141580;27;19950;-59
2022/07/23 09:01:20;;;;;;;;;;;;;;;29.06;73.09;97991.56;5145498;27;19929;-59
2022/07/23 09:03:47;;;;;;;;;;;;;;;29.04;74.26;97993.91;5145428;27;19966;-60
2022/07/23 09:06:14;;;;;;;;;;;;;;;29.02;74.18;97988.81;5142386;27;19923;-60
2022/07/23 09:08:41;;;;;;;;;;;;;;;28.85;73.79;97995.72;5140962;27;19924;-60
2022/07/23 09:11:09;;;;;;;;;;;;;;;28.99;74.39;97995.06;5143795;27;19931;-61
2022/07/23 09:13:37;;;;;;;;;;;;;;;29.12;75.06;98001.03;5142577;27;19931;-61
2022/07/23 09:16:05;;;;;;;;;;;;;;;29.25;74.50;97994.88;5143564;27;19938;-60
2022/07/23 09:18:37;;;;;;;;;;;;;;;29.28;75.23;97985.06;5141514;27;19971;-60
2022/07/23 09:21:16;;;;;;;;;;;;;;;29.20;75.38;97986.94;5142781;27;19934;-60
2022/07/23 09:23:44;;;;;;;;;;;;;;;29.27;75.93;97986.25;5144960;27;19966;-60
2022/07/23 09:26:21;;;;;;;;;;;;;;;29.35;75.33;97980.41;5142608;27;19924;-61
2022/07/23 09:28:52;;;;;;;;;;;;;;;29.42;74.87;97982.41;5141164;27;19924;-61
2022/07/23 09:31:18;;;;;;;;;;;;;;;29.31;75.98;97985.06;5144701;27;19924;-62
2022/07/23 09:33:45;;;;;;;;;;;;;;;29.32;76.39;97972.13;5144715;27;19927;-61
2022/07/23 09:36:11;;;;;;;;;;;;;;;29.42;76.31;97983.19;5142175;27;19966;-60
2022/07/23 09:38:48;;;;;;;;;;;;;;;29.45;75.74;97981.63;5141002;27;19924;-59
2022/07/23 09:41:15;;;;;;;;;;;;;;;29.41;76.60;97987.09;5143939;27;19924;-61
2022/07/23 09:43:41;;;;;;;;;;;;;;;29.44;76.39;97982.78;5141758;27;19966;-62
2022/07/23 09:46:17;;;;;;;;;;;;;;;29.45;78.73;97981.63;5142224;27;19987;-60
2022/07/23 09:48:43;;;;;;;;;;;;;;;29.23;80.04;97985.41;5140934;27;19927;-60
2022/07/23 09:51:10;;;;;;;;;;;;;;;29.17;81.07;97984.19;5142860;27;19955;-62
2022/07/23 09:53:36;;;;;;;;;;;;;;;29.15;81.45;97989.28;5144181;27;19945;-61
2022/07/23 09:56:04;;;;;;;;;;;;;;;29.28;81.53;97987.81;5143037;27;20359;-60
2022/07/23 09:58:31;;;;;;;;;;;;;;;29.31;81.35;97987.03;5140615;27;19951;-60
2022/07/23 10:00:59;;;;;;;;;;;;;;;29.40;81.85;97993.00;5141154;27;19999;-61
2022/07/23 10:03:25;;;;;;;;;;;;;;;29.53;81.93;97993.44;5143919;27;19919;-61
2022/07/23 10:05:53;;;;;;;;;;;;;;;29.67;81.52;97979.75;5144127;27;19966;-60
2022/07/23 10:08:20;;;;;;;;;;;;;;;29.37;83.06;97988.28;5131876;27;19951;-61
2022/07/23 10:10:46;;;;;;;;;;;;;;;29.60;81.93;97987.97;5140389;27;19975;-60
2022/07/23 10:15:55;;;;;;;;;;;;;;;29.93;80.57;97974.78;5134209;27;19927;-61
2022/07/23 10:18:21;;;;;;;;;;;;;;;29.93;80.36;97972.03;5140101;27;19931;-60
2022/07/23 10:20:48;;;;;;;;;;;;;;;30.09;79.50;97977.19;5140185;27;19924;-60
2022/07/23 10:23:19;;;;;;;;;;;;;;;30.31;79.08;97975.25;5143038;27;19971;-60
2022/07/23 10:25:50;;;;;;;;;;;;;;;30.20;78.46;97971.72;5143591;27;19923;-61
2022/07/23 10:28:23;;;;;;;;;;;;;;;30.27;78.23;97963.44;5140239;27;19928;-60
2022/07/23 10:30:55;;;;;;;;;;;;;;;30.42;77.87;97963.09;5140147;27;19962;-61
2022/07/23 10:33:26;;;;;;;;;;;;;;;30.22;79.70;97955.56;5132197;27;20029;-61
2022/07/23 10:35:56;;;;;;;;;;;;;;;30.36;79.45;97947.34;5140115;27;19923;-60
2022/07/23 10:38:27;;;;;;;;;;;;;;;30.46;78.73;97952.88;5132018;27;19924;-62
2022/07/23 10:40:57;;;;;;;;;;;;;;;30.63;77.22;97948.56;5139808;27;19928;-60
2022/07/23 10:43:25;;;;;;;;;;;;;;;30.56;76.31;97945.78;5130225;27;19924;-60
2022/07/23 10:45:52;;;;;;;;;;;;;;;30.55;77.72;97948.97;5142950;27;19924;-60
2022/07/23 10:48:20;;;;;;;;;;;;;;;29.95;81.68;97942.16;5139235;27;20660;-60
2022/07/23 10:51:07;;;;;;;;;;;;;;;29.90;82.85;97938.97;5138771;27;20404;-60
2022/07/23 10:53:48;;;;;;;;;;;;;;;29.89;83.04;97940.94;5133081;27;20016;-60
2022/07/23 10:56:15;;;;;;;;;;;;;;;29.84;83.68;97941.31;5142278;27;19953;-60
2022/07/23 10:58:48;;;;;;;;;;;;;;;30.11;82.13;97932.75;5143043;27;20015;-61
2022/07/23 11:01:33;;;;;;;;;;;;;;;30.41;79.58;97925.72;5140131;27;20058;-61
2022/07/23 11:04:00;;;;;;;;;;;;;;;30.55;76.54;97922.16;5140250;27;19919;-60
2022/07/23 11:06:56;;;;;;;;;;;;;;;30.74;75.75;97913.50;5142940;27;19923;-61
2022/07/23 11:09:26;;;;;;;;;;;;;;;30.92;72.53;97925.28;5131320;28;19956;-59
2022/07/23 11:12:07;;;;;;;;;;;;;;;30.89;72.12;97915.03;5139196;28;19924;-61
2022/07/23 11:14:48;;;;;;;;;;;;;;;30.64;67.71;97911.53;5132513;28;19962;-60
2022/07/23 11:17:21;;;;;;;;;;;;;;;30.65;72.31;97926.88;5141652;28;19995;-60
2022/07/23 11:20:06;;;;;;;;;;;;;;;30.79;72.55;97915.06;5142857;28;19923;-61
2022/07/23 11:22:35;;;;;;;;;;;;;;;30.24;74.63;97918.19;5132797;28;19935;-61
2022/07/23 11:25:01;;;;;;;;;;;;;;;30.41;74.60;97919.41;5140451;28;19935;-60
2022/07/23 11:27:37;;;;;;;;;;;;;;;30.32;77.43;97922.53;5143045;28;19962;-60
2022/07/23 11:30:04;;;;;;;;;;;;;;;30.41;78.43;97928.47;5141555;28;19923;-59
2022/07/23 11:32:34;;;;;;;;;;;;;;;30.55;81.48;97944.22;5141730;27;19987;-60
2022/07/23 11:35:01;;;;;;;;;;;;;;;30.41;82.80;97955.25;5144344;27;19979;-61
2022/07/23 11:37:29;;;;;;;;;;;;;;;30.24;86.98;97969.72;5147035;27;19924;-60
2022/07/23 11:39:55;;;;;;;;;;;;;;;30.03;93.71;97998.03;5146867;27;19934;-60
2022/07/23 11:42:23;;;;;;;;;;;;;;;29.98;95.78;97992.91;5140750;27;19962;-60
2022/07/23 11:44:49;;;;;;;;;;;;;;;29.18;100.00;97972.00;5143191;27;19942;-60
2022/07/23 11:47:15;;;;;;;;;;;;;;;27.72;100.00;97982.75;5146170;27;19923;-60
2022/07/23 11:49:52;;;;;;;;;;;;;;;27.86;100.00;97969.19;5146808;27;19927;-60
2022/07/23 11:52:18;;;;;;;;;;;;;;;28.79;100.00;97969.78;5143108;27;19924;-60
2022/07/23 11:54:48;;;;;;;;;;;;;;;29.24;100.00;97954.78;5142936;27;20460;-63
2022/07/23 11:57:14;;;;;;;;;;;;;;;29.21;100.00;97965.75;5145727;27;19974;-60
2022/07/23 11:59:41;;;;;;;;;;;;;;;29.09;100.00;97960.56;5146417;27;19934;-61
2022/07/23 12:02:08;;;;;;;;;;;;;;;29.36;100.00;97965.47;5144372;27;19960;-60
2022/07/23 12:04:40;;;;;;;;;;;;;;;29.28;100.00;97966.59;5142739;27;19927;-60
2022/07/23 12:07:22;;;;;;;;;;;;;;;29.62;100.00;97958.91;5144384;27;19923;-61
2022/07/23 12:09:49;;;;;;;;;;;;;;;29.59;100.00;97961.63;5146179;27;19931;-60
2022/07/23 12:12:16;;;;;;;;;;;;;;;29.62;100.00;97955.38;5140319;27;19930;-60
2022/07/23 12:14:48;;;;;;;;;;;;;;;29.57;100.00;97953.78;5141624;27;19927;-60
2022/07/23 12:17:14;;;;;;;;;;;;;;;29.77;100.00;97949.50;5145482;27;19963;-60
2022/07/23 12:19:40;;;;;;;;;;;;;;;29.85;100.00;97945.66;5146036;27;19924;-61
2022/07/23 12:22:07;;;;;;;;;;;;;;;29.50;100.00;97945.47;5143976;27;19924;-60
2022/07/23 12:24:48;;;;;;;;;;;;;;;29.61;100.00;97945.53;5142399;27;19924;-60
2022/07/23 12:27:16;;;;;;;;;;;;;;;29.47;100.00;97932.50;5145023;27;19942;-61
2022/07/23 12:29:42;;;;;;;;;;;;;;;29.27;100.00;97945.78;5145885;27;19980;-60
2022/07/23 12:32:17;;;;;;;;;;;;;;;29.19;100.00;97944.09;5143809;27;19947;-61
2022/07/23 12:34:44;;;;;;;;;;;;;;;29.15;100.00;97942.53;5142372;27;19959;-60
2022/07/23 12:37:25;;;;;;;;;;;;;;;28.81;100.00;97923.44;5144297;27;19994;-61
2022/07/23 12:39:51;;;;;;;;;;;;;;;29.10;100.00;97934.63;5145761;27;19930;-60
2022/07/23 12:42:19;;;;;;;;;;;;;;;29.41;100.00;97931.28;5139404;27;19979;-62
2022/07/23 12:45:00;;;;;;;;;;;;;;;29.06;100.00;97926.34;5140537;27;19976;-60
2022/07/23 12:47:26;;;;;;;;;;;;;;;28.85;100.00;97917.97;5134387;27;19924;-61